createdAt,value
2022-12-18T00:00:48.909Z,88.22
2022-12-18T00:03:16.084Z,88.32
2022-12-18T00:05:53.161Z,87.96
2022-12-18T00:08:20.121Z,88.75
2022-12-18T00:10:47.084Z,88.96
2022-12-18T00:13:13.856Z,88.96
2022-12-18T00:15:40.658Z,89.62
2022-12-18T00:18:07.342Z,90.17
2022-12-18T00:20:39.056Z,89.97
2022-12-18T00:23:06.032Z,92.00
2022-12-18T00:25:36.606Z,91.33
2022-12-18T00:28:04.870Z,90.82
2022-12-18T00:30:31.396Z,90.63
2022-12-18T00:32:58.274Z,90.02
2022-12-18T00:35:24.663Z,90.88
2022-12-18T00:37:51.063Z,90.58
2022-12-18T00:40:17.494Z,89.82
2022-12-18T00:42:58.954Z,90.18
2022-12-18T00:45:26.382Z,90.50
2022-12-18T00:47:52.966Z,90.02
2022-12-18T00:50:19.757Z,90.03
2022-12-18T00:52:46.144Z,89.46
2022-12-18T00:55:12.719Z,89.82
2022-12-18T00:57:39.181Z,89.62
2022-12-18T01:00:07.725Z,89.76
2022-12-18T01:02:34.214Z,89.58
2022-12-18T01:05:00.734Z,89.74
2022-12-18T01:07:27.111Z,89.55
2022-12-18T01:09:53.472Z,89.41
2022-12-18T01:12:19.894Z,88.88
2022-12-18T01:14:46.350Z,88.80
2022-12-18T01:17:12.751Z,89.23
2022-12-18T01:19:39.219Z,91.36
2022-12-18T01:22:05.588Z,91.58
2022-12-18T01:24:31.998Z,90.40
2022-12-18T01:26:58.875Z,90.49
2022-12-18T01:29:25.240Z,91.18
2022-12-18T01:31:52.504Z,90.40
2022-12-18T01:34:18.910Z,90.46
2022-12-18T01:36:45.298Z,90.79
2022-12-18T01:39:13.735Z,90.26
2022-12-18T01:41:58.811Z,90.17
2022-12-18T01:44:53.328Z,90.14
2022-12-18T01:47:43.099Z,90.25
2022-12-18T01:50:19.941Z,89.82
2022-12-18T01:52:49.985Z,90.25
2022-12-18T01:55:19.479Z,90.50
2022-12-18T01:57:47.212Z,90.32
2022-12-18T02:00:17.432Z,90.26
2022-12-18T02:02:44.989Z,90.40
2022-12-18T02:05:12.909Z,92.11
2022-12-18T02:08:04.638Z,91.14
2022-12-18T02:10:34.099Z,91.05
2022-12-18T02:13:18.654Z,90.18
2022-12-18T02:15:49.921Z,90.27
2022-12-18T02:18:22.421Z,89.89
2022-12-18T02:21:00.453Z,89.65
2022-12-18T02:24:13.308Z,89.68
2022-12-18T02:26:47.946Z,88.95
2022-12-18T02:29:17.949Z,88.89
2022-12-18T02:31:54.849Z,88.77
2022-12-18T02:34:23.670Z,88.69
2022-12-18T02:36:50.928Z,88.90
2022-12-18T02:39:18.602Z,87.98
2022-12-18T02:41:45.182Z,88.12
2022-12-18T02:44:13.520Z,87.46
2022-12-18T02:46:49.819Z,88.31
2022-12-18T02:49:22.330Z,88.27
2022-12-18T02:51:55.968Z,88.31
2022-12-18T02:54:51.618Z,88.27
2022-12-18T02:57:36.766Z,87.94
2022-12-18T03:00:18.783Z,87.16
2022-12-18T03:02:57.426Z,87.18
2022-12-18T03:05:29.217Z,87.04
2022-12-18T03:08:09.361Z,87.82
2022-12-18T03:10:40.894Z,87.37
2022-12-18T03:13:11.675Z,87.28
2022-12-18T03:15:49.840Z,86.95
2022-12-18T03:18:19.743Z,87.44
2022-12-18T03:20:48.181Z,87.67
2022-12-18T03:23:24.329Z,87.01
2022-12-18T03:25:55.127Z,86.95
2022-12-18T03:28:23.017Z,87.46
2022-12-18T03:30:53.319Z,87.33
2022-12-18T03:33:28.844Z,88.04
2022-12-18T03:35:55.386Z,88.19
2022-12-18T03:38:21.822Z,88.23
2022-12-18T03:40:48.134Z,87.47
2022-12-18T03:43:41.026Z,87.74
2022-12-18T03:46:21.718Z,87.92
2022-12-18T03:49:12.370Z,87.73
2022-12-18T03:51:52.770Z,87.25
2022-12-18T03:54:19.862Z,86.70
2022-12-18T03:56:49.701Z,87.26
2022-12-18T03:59:17.572Z,87.25
2022-12-18T04:01:47.744Z,87.53
2022-12-18T04:04:16.408Z,87.38
2022-12-18T04:06:44.312Z,86.79
2022-12-18T04:09:10.850Z,87.61
2022-12-18T04:11:37.256Z,87.53
2022-12-18T04:14:07.060Z,87.93
2022-12-18T04:16:33.793Z,87.79
2022-12-18T04:19:00.205Z,87.38
2022-12-18T04:21:26.815Z,87.53
2022-12-18T04:23:53.302Z,88.03
2022-12-18T04:26:19.939Z,87.30
2022-12-18T04:28:46.644Z,87.83
2022-12-18T04:31:13.181Z,87.37
2022-12-18T04:33:40.062Z,87.59
2022-12-18T04:36:07.162Z,87.66
2022-12-18T04:38:33.751Z,87.38
2022-12-18T04:41:00.154Z,86.97
2022-12-18T04:43:26.614Z,87.20
2022-12-18T04:45:53.046Z,86.97
2022-12-18T04:48:21.081Z,86.71
2022-12-18T04:50:48.020Z,87.04
2022-12-18T04:53:14.390Z,86.05
2022-12-18T04:55:40.797Z,86.63
2022-12-18T04:58:07.231Z,86.78
2022-12-18T05:00:33.711Z,87.09
2022-12-18T05:03:02.571Z,87.36
2022-12-18T05:05:29.284Z,87.41
2022-12-18T05:07:55.757Z,86.93
2022-12-18T05:10:22.257Z,86.57
2022-12-18T05:13:01.195Z,86.73
2022-12-18T05:15:31.935Z,86.40
2022-12-18T05:17:59.195Z,86.52
2022-12-18T05:20:26.526Z,86.27
2022-12-18T05:22:54.937Z,86.92
2022-12-18T05:25:21.751Z,87.19
2022-12-18T05:27:48.446Z,87.60
2022-12-18T05:30:15.262Z,87.16
2022-12-18T05:32:42.033Z,86.89
2022-12-18T05:35:10.397Z,86.86
2022-12-18T05:37:42.543Z,87.19
2022-12-18T05:40:10.214Z,86.85
2022-12-18T05:42:36.630Z,87.35
2022-12-18T05:45:03.283Z,87.07
2022-12-18T05:47:29.814Z,87.11
2022-12-18T05:49:56.418Z,86.69
2022-12-18T05:52:22.833Z,86.96
2022-12-18T05:54:49.262Z,86.57
2022-12-18T05:57:15.685Z,87.24
2022-12-18T05:59:42.088Z,86.81
2022-12-18T06:02:08.782Z,86.67
2022-12-18T06:04:35.439Z,86.83
2022-12-18T06:07:04.734Z,87.00
2022-12-18T06:09:31.168Z,86.83
2022-12-18T06:11:57.564Z,86.88
2022-12-18T06:14:23.936Z,86.40
2022-12-18T06:16:52.336Z,87.14
2022-12-18T06:19:18.868Z,87.10
2022-12-18T06:21:45.492Z,86.77
2022-12-18T06:24:12.008Z,87.07
2022-12-18T06:26:39.885Z,87.29
2022-12-18T06:29:06.835Z,87.43
2022-12-18T06:31:33.467Z,87.07
2022-12-18T06:33:59.921Z,87.58
2022-12-18T06:36:26.996Z,87.58
2022-12-18T06:38:53.423Z,87.94
2022-12-18T06:41:21.298Z,87.71
2022-12-18T06:43:47.829Z,87.75
2022-12-18T06:46:14.546Z,87.41
2022-12-18T06:48:41.147Z,87.86
2022-12-18T06:51:07.659Z,87.92
2022-12-18T06:53:35.272Z,88.92
2022-12-18T06:56:08.013Z,88.08
2022-12-18T06:58:36.497Z,88.36
2022-12-18T07:01:04.892Z,88.25
2022-12-18T07:03:31.559Z,88.37
2022-12-18T07:05:57.996Z,88.72
2022-12-18T07:08:24.429Z,88.14
2022-12-18T07:10:55.958Z,88.64
2022-12-18T07:13:22.860Z,88.43
2022-12-18T07:15:49.305Z,88.78
2022-12-18T07:18:15.702Z,88.27
2022-12-18T07:20:42.130Z,88.42
2022-12-18T07:23:08.521Z,88.02
2022-12-18T07:25:38.350Z,88.04
2022-12-18T07:28:05.124Z,88.35
2022-12-18T07:30:31.530Z,88.57
2022-12-18T07:32:57.997Z,88.29
2022-12-18T07:35:25.305Z,89.98
2022-12-18T07:37:52.120Z,90.51
2022-12-18T07:40:18.598Z,89.61
2022-12-18T07:42:45.356Z,89.34
2022-12-18T07:45:11.839Z,89.46
2022-12-18T07:47:38.443Z,89.63
2022-12-18T07:50:05.664Z,89.70
2022-12-18T07:52:32.076Z,89.64
2022-12-18T07:54:59.646Z,89.66
2022-12-18T08:00:13.263Z,89.05
2022-12-18T08:02:39.824Z,89.89
2022-12-18T08:05:06.519Z,89.65
2022-12-18T08:07:33.561Z,89.38
2022-12-18T08:10:00.056Z,89.44
2022-12-18T08:12:26.469Z,89.63
2022-12-18T08:14:52.908Z,89.97
2022-12-18T08:17:21.072Z,89.80
2022-12-18T08:19:47.466Z,89.68
2022-12-18T08:22:13.846Z,89.64
2022-12-18T08:24:40.262Z,89.64
2022-12-18T08:27:29.002Z,90.93
2022-12-18T08:29:53.019Z,91.46
2022-12-18T08:32:19.494Z,91.59
2022-12-18T08:34:45.937Z,92.03
2022-12-18T08:37:12.334Z,92.19
2022-12-18T08:39:38.746Z,92.74
2022-12-18T08:42:23.800Z,92.90
2022-12-18T08:44:50.210Z,93.21
2022-12-18T08:47:16.588Z,92.65
2022-12-18T08:49:43.254Z,92.56
2022-12-18T08:52:10.386Z,92.26
2022-12-18T08:54:36.786Z,91.38
2022-12-18T08:57:03.357Z,92.80
2022-12-18T08:59:29.724Z,93.27
2022-12-18T09:01:56.436Z,92.80
2022-12-18T09:04:23.286Z,92.15
2022-12-18T09:06:50.497Z,92.26
2022-12-18T09:09:16.992Z,92.65
2022-12-18T09:11:43.466Z,93.28
2022-12-18T09:14:10.385Z,92.96
2022-12-18T09:16:36.944Z,92.38
2022-12-18T09:19:04.988Z,92.79
2022-12-18T09:21:35.132Z,92.10
2022-12-18T09:24:04.119Z,92.72
2022-12-18T09:26:31.790Z,92.70
2022-12-18T09:28:58.272Z,93.09
2022-12-18T09:31:25.638Z,93.91
2022-12-18T09:33:52.236Z,93.73
2022-12-18T09:36:19.129Z,94.08
2022-12-18T09:38:45.549Z,93.56
2022-12-18T09:41:30.296Z,93.68
2022-12-18T09:44:19.990Z,94.32
2022-12-18T09:47:19.218Z,93.54
2022-12-18T09:49:47.343Z,93.58
2022-12-18T09:52:20.447Z,93.79
2022-12-18T09:54:55.041Z,94.05
2022-12-18T09:57:23.246Z,94.39
2022-12-18T09:59:56.456Z,93.61
2022-12-18T10:02:25.378Z,93.78
2022-12-18T10:05:17.903Z,94.11
2022-12-18T10:08:14.743Z,94.00
2022-12-18T10:10:54.084Z,94.13
2022-12-18T10:13:38.931Z,94.17
2022-12-18T10:16:20.760Z,94.41
2022-12-18T10:18:50.187Z,94.35
2022-12-18T10:21:27.746Z,93.77
2022-12-18T10:24:26.633Z,93.60
2022-12-18T10:26:54.121Z,93.55
2022-12-18T10:29:20.656Z,94.69
2022-12-18T10:31:47.096Z,94.40
2022-12-18T10:34:13.968Z,93.17
2022-12-18T10:36:40.487Z,92.86
2022-12-18T10:39:24.077Z,92.83
2022-12-18T10:41:50.497Z,92.65
2022-12-18T10:44:19.585Z,92.54
2022-12-18T10:46:51.106Z,92.87
2022-12-18T10:49:24.268Z,93.04
2022-12-18T10:51:51.035Z,92.19
2022-12-18T10:54:23.778Z,92.13
2022-12-18T10:56:50.542Z,92.13
2022-12-18T10:59:18.468Z,92.04
2022-12-18T11:01:58.780Z,92.83
2022-12-18T11:04:30.856Z,92.65
2022-12-18T11:07:00.402Z,92.81
2022-12-18T11:09:30.662Z,92.91
2022-12-18T11:12:00.104Z,93.14
2022-12-18T11:14:30.367Z,91.78
2022-12-18T11:17:24.504Z,92.13
2022-12-18T11:19:43.891Z,91.68
2022-12-18T11:22:27.460Z,91.84
2022-12-18T11:27:53.929Z,92.01
2022-12-18T11:30:29.619Z,91.99
2022-12-18T11:33:05.174Z,92.41
2022-12-18T11:35:51.169Z,91.73
2022-12-18T11:38:30.743Z,91.36
2022-12-18T11:41:01.291Z,90.96
2022-12-18T11:43:34.857Z,90.98
2022-12-18T11:46:14.766Z,90.78
2022-12-18T11:48:53.506Z,91.19
2022-12-18T11:51:27.437Z,91.05
2022-12-18T11:53:53.995Z,91.22
2022-12-18T11:56:32.154Z,90.63
2022-12-18T11:59:19.747Z,91.22
2022-12-18T12:02:15.519Z,90.90
2022-12-18T12:05:10.248Z,90.74
2022-12-18T12:07:36.618Z,90.80
2022-12-18T12:10:26.279Z,91.38
2022-12-18T12:13:01.583Z,90.51
2022-12-18T12:15:37.220Z,91.13
2022-12-18T12:18:44.306Z,90.74
2022-12-18T12:21:32.533Z,91.38
2022-12-18T12:24:27.043Z,91.70
2022-12-18T12:27:03.297Z,91.29
2022-12-18T12:29:43.021Z,91.28
2022-12-18T12:32:18.454Z,91.32
2022-12-18T12:35:17.209Z,90.79
2022-12-18T12:38:10.263Z,91.07
2022-12-18T12:40:55.357Z,91.34
2022-12-18T12:43:51.112Z,90.91
2022-12-18T12:46:20.397Z,91.15
2022-12-18T12:48:50.080Z,91.26
2022-12-18T12:51:41.751Z,91.11
2022-12-18T12:54:16.351Z,90.46
2022-12-18T12:56:48.922Z,91.55
2022-12-18T12:59:28.951Z,90.74
2022-12-18T13:02:00.572Z,91.05
2022-12-18T13:04:47.048Z,90.65
2022-12-18T13:07:34.971Z,91.44
2022-12-18T13:10:23.793Z,91.06
2022-12-18T13:12:56.835Z,91.48
2022-12-18T13:15:48.279Z,91.05
2022-12-18T13:18:16.153Z,91.24
2022-12-18T13:20:53.115Z,90.53
2022-12-18T13:23:25.887Z,90.87
2022-12-18T13:25:58.411Z,91.07
2022-12-18T13:28:47.839Z,91.14
2022-12-18T13:31:40.384Z,90.84
2022-12-18T13:37:32.363Z,90.95
2022-12-18T13:39:59.134Z,91.04
2022-12-18T13:42:57.794Z,90.71
2022-12-18T13:45:46.147Z,91.47
2022-12-18T13:48:21.904Z,91.35
2022-12-18T13:50:59.172Z,91.34
2022-12-18T13:53:29.357Z,91.30
2022-12-18T13:55:56.069Z,91.05
2022-12-18T13:58:23.531Z,90.96
2022-12-18T14:00:50.056Z,90.83
2022-12-18T14:03:29.353Z,90.90
2022-12-18T14:06:16.124Z,90.88
2022-12-18T14:08:44.542Z,90.55
2022-12-18T14:11:21.802Z,90.68
2022-12-18T14:13:49.318Z,90.86
2022-12-18T14:16:17.995Z,90.98
2022-12-18T14:18:58.749Z,90.58
2022-12-18T14:21:33.381Z,90.15
2022-12-18T14:24:20.591Z,90.39
2022-12-18T14:26:50.425Z,90.82
2022-12-18T14:29:23.469Z,91.20
2022-12-18T14:32:17.069Z,91.06
2022-12-18T14:34:52.617Z,90.77
2022-12-18T14:37:23.240Z,91.08
2022-12-18T14:40:10.447Z,90.81
2022-12-18T14:42:38.192Z,91.00
2022-12-18T14:45:43.318Z,91.03
2022-12-18T14:48:22.851Z,90.69
2022-12-18T14:51:19.244Z,90.73
2022-12-18T14:53:54.162Z,90.85
2022-12-18T14:56:30.289Z,91.44
2022-12-18T14:59:01.423Z,91.29
2022-12-18T15:01:30.957Z,91.24
2022-12-18T15:03:58.809Z,90.78
2022-12-18T15:06:37.042Z,91.22
2022-12-18T15:09:23.507Z,90.80
2022-12-18T15:11:51.321Z,90.61
2022-12-18T15:14:30.048Z,91.30
2022-12-18T15:16:57.426Z,91.53
2022-12-18T15:19:48.455Z,91.27
2022-12-18T15:22:26.425Z,91.10
2022-12-18T15:24:52.964Z,90.81
2022-12-18T15:27:28.530Z,90.45
2022-12-18T15:30:21.194Z,90.70
2022-12-18T15:32:48.230Z,90.99
2022-12-18T15:35:20.741Z,90.68
2022-12-18T15:37:47.584Z,90.86
2022-12-18T15:40:21.959Z,90.83
2022-12-18T15:43:07.927Z,90.90
2022-12-18T15:45:34.396Z,90.99
2022-12-18T15:48:00.938Z,90.54
2022-12-18T15:50:27.378Z,90.78
2022-12-18T15:52:56.340Z,90.81
2022-12-18T15:55:42.855Z,90.88
2022-12-18T15:58:10.700Z,91.16
2022-12-18T16:00:39.413Z,91.22
2022-12-18T16:03:06.240Z,91.13
2022-12-18T16:05:33.299Z,91.88
2022-12-18T16:07:59.770Z,91.16
2022-12-18T16:10:27.062Z,91.33
2022-12-18T16:12:53.551Z,92.08
2022-12-18T16:15:24.480Z,92.41
2022-12-18T16:17:51.293Z,91.47
2022-12-18T16:20:19.817Z,91.73
2022-12-18T16:22:46.962Z,92.46
2022-12-18T16:25:28.422Z,92.26
2022-12-18T16:27:58.803Z,92.08
2022-12-18T16:30:28.709Z,92.02
2022-12-18T16:33:02.660Z,91.79
2022-12-18T16:35:29.173Z,92.02
2022-12-18T16:37:55.543Z,91.92
2022-12-18T16:40:22.004Z,91.97
2022-12-18T16:42:48.471Z,92.32
2022-12-18T16:45:18.563Z,92.07
2022-12-18T16:47:45.587Z,91.91
2022-12-18T16:50:12.284Z,91.79
2022-12-18T16:52:39.834Z,91.77
2022-12-18T16:55:06.692Z,92.36
2022-12-18T16:57:33.277Z,92.18
2022-12-18T17:00:04.729Z,92.13
2022-12-18T17:02:32.087Z,91.87
2022-12-18T17:04:59.297Z,91.91
2022-12-18T17:07:26.964Z,91.92
2022-12-18T17:09:54.111Z,91.54
2022-12-18T17:12:21.004Z,91.36
2022-12-18T17:14:47.510Z,92.07
2022-12-18T17:17:22.543Z,92.21
2022-12-18T17:19:50.072Z,91.70
2022-12-18T17:22:16.466Z,91.22
2022-12-18T17:24:42.890Z,91.64
2022-12-18T17:27:09.316Z,92.04
2022-12-18T17:29:35.925Z,91.68
2022-12-18T17:32:02.372Z,91.58
2022-12-18T17:34:29.032Z,91.75
2022-12-18T17:36:56.640Z,91.72
2022-12-18T17:39:23.096Z,91.96
2022-12-18T17:41:49.880Z,91.88
2022-12-18T17:44:17.043Z,91.64
2022-12-18T17:46:45.103Z,91.80
2022-12-18T17:49:11.983Z,92.48
2022-12-18T17:51:38.439Z,93.45
2022-12-18T17:54:05.394Z,93.11
2022-12-18T17:56:32.782Z,93.65
2022-12-18T17:58:59.227Z,93.58
2022-12-18T18:01:26.063Z,94.50
2022-12-18T18:03:54.161Z,94.22
2022-12-18T18:06:20.798Z,93.98
2022-12-18T18:08:47.322Z,94.30
2022-12-18T18:11:35.119Z,94.64
2022-12-18T18:14:04.103Z,93.99
2022-12-18T18:16:43.746Z,94.05
2022-12-18T18:19:16.361Z,94.09
2022-12-18T18:21:44.714Z,94.64
2022-12-18T18:24:13.403Z,94.39
2022-12-18T18:26:41.472Z,93.65
2022-12-18T18:29:08.557Z,94.12
2022-12-18T18:31:40.953Z,93.93
2022-12-18T18:34:08.463Z,94.23
2022-12-18T18:36:34.890Z,94.46
2022-12-18T18:39:02.152Z,93.98
2022-12-18T18:41:29.940Z,93.10
2022-12-18T18:43:57.754Z,93.80
2022-12-18T18:46:24.914Z,93.81
2022-12-18T18:48:51.570Z,93.69
2022-12-18T18:51:21.074Z,93.70
2022-12-18T18:53:49.786Z,93.75
2022-12-18T18:59:04.819Z,93.75
2022-12-18T19:01:31.426Z,93.55
2022-12-18T19:03:57.923Z,92.91
2022-12-18T19:06:26.606Z,92.67
2022-12-18T19:08:54.640Z,93.41
2022-12-18T19:11:40.727Z,92.75
2022-12-18T19:14:09.654Z,92.89
2022-12-18T19:16:36.605Z,92.41
2022-12-18T19:19:03.533Z,92.98
2022-12-18T19:21:31.383Z,93.09
2022-12-18T19:24:01.459Z,92.96
2022-12-18T19:26:28.735Z,92.56
2022-12-18T19:29:00.975Z,92.76
2022-12-18T19:31:33.407Z,92.75
2022-12-18T19:34:01.675Z,92.42
2022-12-18T19:36:30.194Z,92.87
2022-12-18T19:38:58.969Z,92.75
2022-12-18T19:41:26.121Z,92.64
2022-12-18T19:43:55.473Z,92.58
2022-12-18T19:46:23.004Z,93.01
2022-12-18T19:48:50.181Z,92.97
2022-12-18T19:51:17.626Z,93.15
2022-12-18T19:53:44.526Z,93.10
2022-12-18T19:56:16.841Z,93.41
2022-12-18T19:58:44.438Z,92.94
2022-12-18T20:01:16.618Z,93.19
2022-12-18T20:03:44.568Z,92.74
2022-12-18T20:06:30.414Z,93.25
2022-12-18T20:09:00.438Z,92.78
2022-12-18T20:11:31.290Z,93.05
2022-12-18T20:14:01.109Z,93.54
2022-12-18T20:16:27.638Z,93.25
2022-12-18T20:18:54.217Z,93.25
2022-12-18T20:21:21.131Z,93.50
2022-12-18T20:23:47.565Z,92.54
2022-12-18T20:26:14.015Z,93.26
2022-12-18T20:28:40.845Z,93.30
2022-12-18T20:31:13.363Z,93.13
2022-12-18T20:33:41.210Z,93.34
2022-12-18T20:36:11.111Z,93.04
2022-12-18T20:38:39.049Z,92.90
2022-12-18T20:41:19.261Z,92.96
2022-12-18T20:43:45.746Z,92.76
2022-12-18T20:46:13.636Z,92.66
2022-12-18T20:48:40.839Z,92.82
2022-12-18T20:51:15.825Z,92.83
2022-12-18T20:53:42.986Z,92.96
2022-12-18T20:56:21.825Z,92.95
2022-12-18T20:58:49.719Z,92.81
2022-12-18T21:01:20.937Z,92.82
2022-12-18T21:03:48.109Z,92.88
2022-12-18T21:06:16.950Z,92.95
2022-12-18T21:08:43.696Z,93.42
2022-12-18T21:11:42.510Z,92.57
2022-12-18T21:14:20.762Z,92.87
2022-12-18T21:16:47.714Z,92.76
2022-12-18T21:19:17.733Z,93.02
2022-12-18T21:21:44.626Z,92.42
2022-12-18T21:24:11.785Z,92.71
2022-12-18T21:26:44.909Z,92.61
2022-12-18T21:29:14.710Z,92.42
2022-12-18T21:31:41.630Z,92.86
2022-12-18T21:34:08.547Z,92.74
2022-12-18T21:36:35.085Z,92.58
2022-12-18T21:39:01.886Z,92.43
2022-12-18T21:41:47.696Z,92.46
2022-12-18T21:44:17.046Z,92.67
2022-12-18T21:46:48.965Z,92.43
2022-12-18T21:49:22.957Z,92.28
2022-12-18T21:51:51.923Z,92.78
2022-12-18T21:54:18.718Z,92.60
2022-12-18T21:56:45.088Z,92.61
2022-12-18T21:59:14.205Z,92.27
2022-12-18T22:01:40.741Z,92.63
2022-12-18T22:04:07.328Z,92.36
2022-12-18T22:06:33.745Z,92.31
2022-12-18T22:09:00.140Z,92.38
2022-12-18T22:11:26.593Z,92.41
2022-12-18T22:13:52.961Z,92.76
2022-12-18T22:16:19.419Z,92.80
2022-12-18T22:18:45.867Z,92.60
2022-12-18T22:21:29.893Z,92.71
2022-12-18T22:24:02.074Z,92.50
2022-12-18T22:26:30.438Z,93.12
2022-12-18T22:29:17.236Z,93.04
2022-12-18T22:31:43.929Z,93.31
2022-12-18T22:34:10.420Z,93.08
2022-12-18T22:36:41.580Z,93.32
2022-12-18T22:39:11.618Z,92.65
2022-12-18T22:41:37.987Z,93.02
2022-12-18T22:44:04.407Z,93.12
2022-12-18T22:46:33.414Z,92.38
2022-12-18T22:48:59.946Z,92.65
2022-12-18T22:51:26.344Z,92.85
2022-12-18T22:53:52.944Z,93.22
2022-12-18T22:56:21.550Z,93.34
2022-12-18T22:58:49.334Z,93.00
2022-12-18T23:01:22.109Z,93.10
2022-12-18T23:03:49.302Z,93.52
2022-12-18T23:06:16.252Z,93.23
2022-12-18T23:08:43.500Z,93.47
2022-12-18T23:11:10.654Z,93.42
2022-12-18T23:13:37.488Z,93.31
2022-12-18T23:16:08.362Z,92.91
2022-12-18T23:18:35.783Z,92.86
2022-12-18T23:21:06.853Z,93.16
2022-12-18T23:23:37.111Z,94.00
2022-12-18T23:26:05.773Z,93.77
2022-12-18T23:28:33.315Z,93.67
2022-12-18T23:31:14.272Z,94.42
2022-12-18T23:33:43.023Z,94.29
2022-12-18T23:36:11.186Z,95.01
2022-12-18T23:38:37.747Z,94.96
2022-12-18T23:41:13.011Z,95.14
2022-12-18T23:43:39.452Z,95.43
2022-12-18T23:46:30.864Z,94.79
2022-12-18T23:49:00.736Z,94.44
2022-12-18T23:51:27.825Z,95.69
2022-12-18T23:54:01.956Z,94.55
2022-12-18T23:56:29.355Z,95.56
2022-12-18T23:58:56.119Z,95.48
